createdAt,value
2023-05-05T00:00:18.587Z,88716.00
2023-05-05T00:01:03.715Z,88718.00
2023-05-05T00:02:03.615Z,88720.00
2023-05-05T00:03:03.537Z,88721.00
2023-05-05T00:04:03.357Z,88718.00
2023-05-05T00:05:03.249Z,88721.00
2023-05-05T00:06:03.068Z,88718.00
2023-05-05T00:07:02.918Z,88716.00
2023-05-05T00:08:02.772Z,88716.00
2023-05-05T00:09:02.641Z,88718.00
2023-05-05T00:10:02.515Z,88716.00
2023-05-05T00:11:02.375Z,88716.00
2023-05-05T00:12:02.308Z,88716.00
2023-05-05T00:13:02.131Z,88716.00
2023-05-05T00:14:01.980Z,88714.00
2023-05-05T00:15:08.400Z,88714.00
2023-05-05T00:16:01.697Z,88714.00
2023-05-05T00:17:01.620Z,88712.00
2023-05-05T00:18:01.511Z,88714.00
2023-05-05T00:19:01.339Z,88716.00
2023-05-05T00:20:01.151Z,88714.00
2023-05-05T00:21:01.077Z,88714.00
2023-05-05T00:22:00.881Z,88716.00
2023-05-05T00:23:00.761Z,88716.00
2023-05-05T00:24:00.611Z,88714.00
2023-05-05T00:25:00.480Z,88718.00
2023-05-05T00:26:00.336Z,88716.00
2023-05-05T00:27:00.217Z,88714.00
2023-05-05T00:28:00.095Z,88716.00
2023-05-05T00:28:59.989Z,88718.00
2023-05-05T00:29:59.808Z,88714.00
2023-05-05T00:30:59.694Z,88718.00
2023-05-05T00:31:59.558Z,88718.00
2023-05-05T00:32:59.390Z,88718.00
2023-05-05T00:33:59.244Z,88718.00
2023-05-05T00:34:59.105Z,88718.00
2023-05-05T00:35:58.977Z,88718.00
2023-05-05T00:36:58.847Z,88716.00
2023-05-05T00:37:58.749Z,88720.00
2023-05-05T00:38:58.616Z,88714.00
2023-05-05T00:39:58.431Z,88714.00
2023-05-05T00:40:58.319Z,88714.00
2023-05-05T00:41:58.175Z,88716.00
2023-05-05T00:42:58.033Z,88714.00
2023-05-05T00:43:57.895Z,88714.00
2023-05-05T00:44:57.749Z,88716.00
2023-05-05T00:45:57.623Z,88716.00
2023-05-05T00:46:57.487Z,88716.00
2023-05-05T00:47:57.365Z,88716.00
2023-05-05T00:48:57.236Z,88718.00
2023-05-05T00:49:57.053Z,88714.00
2023-05-05T00:50:56.940Z,88710.00
2023-05-05T00:51:56.821Z,88710.00
2023-05-05T00:52:56.725Z,88708.00
2023-05-05T00:53:56.585Z,88710.00
2023-05-05T00:54:56.480Z,88712.00
2023-05-05T00:55:56.415Z,88710.00
2023-05-05T00:56:56.278Z,88710.00
2023-05-05T00:57:56.194Z,88710.00
2023-05-05T00:58:56.071Z,88708.00
2023-05-05T00:59:55.943Z,88708.00
2023-05-05T01:00:55.844Z,88704.00
2023-05-05T01:01:55.769Z,88706.00
2023-05-05T01:02:55.815Z,88706.00
2023-05-05T01:03:55.552Z,88704.00
2023-05-05T01:04:55.435Z,88704.00
2023-05-05T01:05:55.349Z,88704.00
2023-05-05T01:06:55.172Z,88700.00
2023-05-05T01:07:55.082Z,88704.00
2023-05-05T01:08:54.966Z,88706.00
2023-05-05T01:10:04.465Z,88702.00
2023-05-05T01:10:55.724Z,88702.00
2023-05-05T01:11:54.564Z,88702.00
2023-05-05T01:12:54.449Z,88704.00
2023-05-05T01:13:54.306Z,88702.00
2023-05-05T01:14:54.167Z,88700.00
2023-05-05T01:15:54.075Z,88698.00
2023-05-05T01:16:53.917Z,88700.00
2023-05-05T01:17:53.842Z,88700.00
2023-05-05T01:18:53.686Z,88702.00
2023-05-05T01:19:53.551Z,88704.00
2023-05-05T01:20:53.449Z,88704.00
2023-05-05T01:21:53.299Z,88706.00
2023-05-05T01:22:53.184Z,88704.00
2023-05-05T01:23:53.063Z,88700.00
2023-05-05T01:24:52.904Z,88704.00
2023-05-05T01:25:52.797Z,88702.00
2023-05-05T01:26:52.673Z,88702.00
2023-05-05T01:27:52.539Z,88702.00
2023-05-05T01:28:52.415Z,88700.00
2023-05-05T01:29:52.272Z,88700.00
2023-05-05T01:30:52.133Z,88702.00
2023-05-05T01:31:52.128Z,88704.00
2023-05-05T01:32:51.897Z,88702.00
2023-05-05T01:33:51.760Z,88700.00
2023-05-05T01:34:51.662Z,88702.00
2023-05-05T01:35:51.549Z,88700.00
2023-05-05T01:36:51.460Z,88700.00
2023-05-05T01:37:51.392Z,88700.00
2023-05-05T01:38:51.230Z,88698.00
2023-05-05T01:39:51.107Z,88700.00
2023-05-05T01:40:51.009Z,88700.00
2023-05-05T01:41:50.931Z,88702.00
2023-05-05T01:42:50.799Z,88702.00
2023-05-05T01:43:50.686Z,88700.00
2023-05-05T01:44:50.590Z,88702.00
2023-05-05T01:45:50.510Z,88706.00
2023-05-05T01:46:50.381Z,88706.00
2023-05-05T01:47:50.320Z,88706.00
2023-05-05T01:48:50.169Z,88708.00
2023-05-05T01:49:50.071Z,88706.00
2023-05-05T01:50:49.921Z,88708.00
2023-05-05T01:51:49.842Z,88708.00
2023-05-05T01:52:49.716Z,88712.00
2023-05-05T01:53:49.628Z,88712.00
2023-05-05T01:54:49.511Z,88712.00
2023-05-05T01:55:49.412Z,88716.00
2023-05-05T01:56:49.307Z,88718.00
2023-05-05T01:57:49.178Z,88716.00
2023-05-05T01:58:49.083Z,88716.00
2023-05-05T01:59:48.984Z,88716.00
2023-05-05T02:00:48.880Z,88718.00
2023-05-05T02:01:48.763Z,88716.00
2023-05-05T02:02:48.708Z,88721.00
2023-05-05T02:03:48.546Z,88718.00
2023-05-05T02:04:48.503Z,88718.00
2023-05-05T02:05:48.352Z,88718.00
2023-05-05T02:06:48.230Z,88716.00
2023-05-05T02:07:48.140Z,88718.00
2023-05-05T02:08:48.001Z,88716.00
2023-05-05T02:09:47.900Z,88716.00
2023-05-05T02:10:47.803Z,88714.00
2023-05-05T02:11:47.705Z,88714.00
2023-05-05T02:12:47.687Z,88714.00
2023-05-05T02:13:47.576Z,88718.00
2023-05-05T02:14:47.416Z,88716.00
2023-05-05T02:15:47.317Z,88714.00
2023-05-05T02:16:47.190Z,88712.00
2023-05-05T02:17:47.164Z,88714.00
2023-05-05T02:18:47.021Z,88718.00
2023-05-05T02:19:46.900Z,88718.00
2023-05-05T02:20:46.783Z,88721.00
2023-05-05T02:21:46.671Z,88721.00
2023-05-05T02:22:46.602Z,88720.00
2023-05-05T02:23:46.466Z,88720.00
2023-05-05T02:24:46.377Z,88720.00
2023-05-05T02:25:46.257Z,88716.00
2023-05-05T02:26:46.166Z,88720.00
2023-05-05T02:27:46.053Z,88716.00
2023-05-05T02:28:45.944Z,88720.00
2023-05-05T02:29:45.855Z,88720.00
2023-05-05T02:30:45.743Z,88718.00
2023-05-05T02:31:45.705Z,88720.00
2023-05-05T02:32:45.535Z,88720.00
2023-05-05T02:33:45.429Z,88720.00
2023-05-05T02:34:45.347Z,88720.00
2023-05-05T02:35:45.210Z,88720.00
2023-05-05T02:36:45.115Z,88721.00
2023-05-05T02:37:45.012Z,88718.00
2023-05-05T02:38:44.896Z,88716.00
2023-05-05T02:39:44.782Z,88721.00
2023-05-05T02:40:44.688Z,88721.00
2023-05-05T02:41:44.583Z,88718.00
2023-05-05T02:42:44.551Z,88721.00
2023-05-05T02:43:44.362Z,88718.00
2023-05-05T02:44:44.258Z,88718.00
2023-05-05T02:45:44.165Z,88718.00
2023-05-05T02:46:44.092Z,88718.00
2023-05-05T02:47:43.978Z,88721.00
2023-05-05T02:48:43.808Z,88720.00
2023-05-05T02:49:43.703Z,88718.00
2023-05-05T02:50:43.570Z,88723.00
2023-05-05T02:51:43.470Z,88725.00
2023-05-05T02:52:43.337Z,88721.00
2023-05-05T02:53:43.255Z,88720.00
2023-05-05T02:54:43.104Z,88725.00
2023-05-05T02:55:43.023Z,88723.00
2023-05-05T02:56:42.863Z,88718.00
2023-05-05T02:57:42.734Z,88718.00
2023-05-05T02:58:42.603Z,88720.00
2023-05-05T02:59:42.471Z,88720.00
2023-05-05T03:00:42.343Z,88720.00
2023-05-05T03:01:42.226Z,88718.00
2023-05-05T03:02:42.191Z,88718.00
2023-05-05T03:03:42.064Z,88718.00
2023-05-05T03:04:41.836Z,88718.00
2023-05-05T03:05:41.728Z,88723.00
2023-05-05T03:06:41.592Z,88720.00
2023-05-05T03:07:41.467Z,88721.00
2023-05-05T03:08:41.326Z,88720.00
2023-05-05T03:09:41.220Z,88721.00
2023-05-05T03:10:41.091Z,88721.00
2023-05-05T03:11:40.948Z,88725.00
2023-05-05T03:12:40.857Z,88721.00
2023-05-05T03:13:40.678Z,88723.00
2023-05-05T03:14:40.559Z,88718.00
2023-05-05T03:15:40.403Z,88718.00
2023-05-05T03:16:40.357Z,88721.00
2023-05-05T03:17:40.270Z,88716.00
2023-05-05T03:18:40.054Z,88712.00
2023-05-05T03:19:39.933Z,88716.00
2023-05-05T03:20:39.831Z,88714.00
2023-05-05T03:21:39.737Z,88712.00
2023-05-05T03:22:39.643Z,88710.00
2023-05-05T03:23:39.523Z,88714.00
2023-05-05T03:24:39.415Z,88712.00
2023-05-05T03:25:39.291Z,88712.00
2023-05-05T03:26:39.193Z,88708.00
2023-05-05T03:27:39.100Z,88710.00
2023-05-05T03:28:38.990Z,88706.00
2023-05-05T03:29:38.891Z,88706.00
2023-05-05T03:30:38.854Z,88706.00
2023-05-05T03:31:38.717Z,88708.00
2023-05-05T03:32:38.638Z,88704.00
2023-05-05T03:33:38.462Z,88706.00
2023-05-05T03:34:38.350Z,88704.00
2023-05-05T03:35:38.263Z,88706.00
2023-05-05T03:36:38.158Z,88710.00
2023-05-05T03:37:38.051Z,88708.00
2023-05-05T03:38:37.952Z,88706.00
2023-05-05T03:39:37.860Z,88708.00
2023-05-05T03:40:44.168Z,88706.00
2023-05-05T03:41:38.604Z,88708.00
2023-05-05T03:42:37.512Z,88710.00
2023-05-05T03:43:37.345Z,88714.00
2023-05-05T03:44:37.214Z,88712.00
2023-05-05T03:45:37.103Z,88712.00
2023-05-05T03:46:36.947Z,88710.00
2023-05-05T03:47:36.840Z,88710.00
2023-05-05T03:48:36.685Z,88708.00
2023-05-05T03:49:36.544Z,88706.00
2023-05-05T03:50:36.444Z,88708.00
2023-05-05T03:51:36.284Z,88708.00
2023-05-05T03:52:36.154Z,88708.00
2023-05-05T03:53:36.036Z,88706.00
2023-05-05T03:54:35.887Z,88702.00
2023-05-05T03:55:35.765Z,88706.00
2023-05-05T03:56:35.634Z,88702.00
2023-05-05T03:57:35.524Z,88706.00
2023-05-05T03:58:35.459Z,88702.00
2023-05-05T03:59:35.287Z,88706.00
2023-05-05T04:00:35.228Z,88706.00
2023-05-05T04:01:35.086Z,88704.00
2023-05-05T04:02:35.089Z,88702.00
2023-05-05T04:03:34.942Z,88700.00
2023-05-05T04:04:34.891Z,88700.00
2023-05-05T04:05:34.728Z,88698.00
2023-05-05T04:06:34.589Z,88696.00
2023-05-05T04:07:34.453Z,88698.00
2023-05-05T04:08:34.364Z,88696.00
2023-05-05T04:09:34.254Z,88696.00
2023-05-05T04:10:34.148Z,88696.00
2023-05-05T04:11:34.045Z,88698.00
2023-05-05T04:12:34.009Z,88700.00
2023-05-05T04:13:33.860Z,88698.00
2023-05-05T04:14:33.746Z,88702.00
2023-05-05T04:15:33.681Z,88702.00
2023-05-05T04:16:33.562Z,88702.00
2023-05-05T04:17:33.401Z,88706.00
2023-05-05T04:18:33.243Z,88704.00
2023-05-05T04:19:33.129Z,88706.00
2023-05-05T04:20:32.976Z,88708.00
2023-05-05T04:21:32.811Z,88706.00
2023-05-05T04:22:32.702Z,88710.00
2023-05-05T04:23:32.562Z,88710.00
2023-05-05T04:24:32.462Z,88710.00
2023-05-05T04:25:32.276Z,88710.00
2023-05-05T04:26:32.131Z,88710.00
2023-05-05T04:27:31.998Z,88712.00
2023-05-05T04:28:31.859Z,88710.00
2023-05-05T04:29:31.720Z,88712.00
2023-05-05T04:30:31.568Z,88712.00
2023-05-05T04:31:31.495Z,88714.00
2023-05-05T04:32:31.338Z,88714.00
2023-05-05T04:33:31.254Z,88714.00
2023-05-05T04:34:31.124Z,88714.00
2023-05-05T04:35:31.032Z,88712.00
2023-05-05T04:36:30.916Z,88712.00
2023-05-05T04:37:30.789Z,88710.00
2023-05-05T04:38:30.748Z,88710.00
2023-05-05T04:39:30.594Z,88712.00
2023-05-05T04:40:30.521Z,88712.00
2023-05-05T04:41:30.383Z,88708.00
2023-05-05T04:42:30.289Z,88710.00
2023-05-05T04:43:30.179Z,88708.00
2023-05-05T04:44:30.110Z,88706.00
2023-05-05T04:45:29.979Z,88706.00
2023-05-05T04:46:29.866Z,88706.00
2023-05-05T04:47:29.778Z,88704.00
2023-05-05T04:48:29.697Z,88706.00
2023-05-05T04:49:29.539Z,88708.00
2023-05-05T04:50:29.458Z,88706.00
2023-05-05T04:51:29.338Z,88708.00
2023-05-05T04:52:29.240Z,88702.00
2023-05-05T04:53:29.142Z,88704.00
2023-05-05T04:54:29.010Z,88704.00
2023-05-05T04:55:28.906Z,88704.00
2023-05-05T04:56:28.801Z,88700.00
2023-05-05T04:57:28.705Z,88704.00
2023-05-05T04:58:28.651Z,88706.00
2023-05-05T04:59:28.513Z,88710.00
2023-05-05T05:00:28.401Z,88710.00
2023-05-05T05:01:28.289Z,88708.00
2023-05-05T05:02:28.318Z,88708.00
2023-05-05T05:03:28.110Z,88710.00
2023-05-05T05:04:27.969Z,88708.00
2023-05-05T05:05:27.863Z,88712.00
2023-05-05T05:06:27.767Z,88712.00
2023-05-05T05:07:27.745Z,88712.00
2023-05-05T05:08:27.574Z,88714.00
2023-05-05T05:09:27.450Z,88716.00
2023-05-05T05:10:27.330Z,88716.00
2023-05-05T05:11:27.227Z,88718.00
2023-05-05T05:12:27.138Z,88716.00
2023-05-05T05:13:27.072Z,88718.00
2023-05-05T05:14:26.904Z,88718.00
2023-05-05T05:15:26.792Z,88718.00
2023-05-05T05:16:26.724Z,88712.00
2023-05-05T05:17:26.606Z,88712.00
2023-05-05T05:18:26.510Z,88714.00
2023-05-05T05:19:26.412Z,88714.00
2023-05-05T05:20:26.266Z,88716.00
2023-05-05T05:21:26.153Z,88712.00
2023-05-05T05:22:26.027Z,88712.00
2023-05-05T05:23:25.918Z,88712.00
2023-05-05T05:24:25.820Z,88712.00
2023-05-05T05:25:25.655Z,88710.00
2023-05-05T05:26:25.593Z,88714.00
2023-05-05T05:27:25.388Z,88712.00
2023-05-05T05:28:25.249Z,88714.00
2023-05-05T05:29:25.119Z,88710.00
2023-05-05T05:30:25.006Z,88710.00
2023-05-05T05:31:24.917Z,88710.00
2023-05-05T05:32:24.761Z,88710.00
2023-05-05T05:33:24.628Z,88710.00
2023-05-05T05:34:24.476Z,88718.00
2023-05-05T05:35:24.374Z,88712.00
2023-05-05T05:36:24.196Z,88714.00
2023-05-05T05:37:24.099Z,88714.00
2023-05-05T05:38:23.978Z,88712.00
2023-05-05T05:39:23.835Z,88712.00
2023-05-05T05:40:23.642Z,88712.00
2023-05-05T05:41:23.561Z,88712.00
2023-05-05T05:42:23.395Z,88714.00
2023-05-05T05:43:23.220Z,88712.00
2023-05-05T05:44:23.087Z,88714.00
2023-05-05T05:45:22.965Z,88712.00
2023-05-05T05:46:22.901Z,88714.00
2023-05-05T05:47:22.685Z,88716.00
2023-05-05T05:48:22.555Z,88712.00
2023-05-05T05:49:22.423Z,88714.00
2023-05-05T05:50:22.469Z,88714.00
2023-05-05T05:51:22.212Z,88714.00
2023-05-05T05:52:22.011Z,88714.00
2023-05-05T05:53:21.979Z,88714.00
2023-05-05T05:54:21.741Z,88718.00
2023-05-05T05:55:21.672Z,88714.00
2023-05-05T05:56:21.467Z,88718.00
2023-05-05T05:57:21.349Z,88716.00
2023-05-05T05:58:21.207Z,88714.00
2023-05-05T05:59:21.083Z,88714.00
2023-05-05T06:00:21.044Z,88712.00
2023-05-05T06:01:20.770Z,88714.00
2023-05-05T06:02:20.710Z,88712.00
2023-05-05T06:03:20.668Z,88710.00
2023-05-05T06:04:20.472Z,88712.00
2023-05-05T06:05:20.233Z,88708.00
2023-05-05T06:06:20.087Z,88706.00
2023-05-05T06:07:19.983Z,88702.00
2023-05-05T06:08:19.854Z,88700.00
2023-05-05T06:09:20.569Z,88704.00
2023-05-05T06:10:27.868Z,88704.00
2023-05-05T06:11:20.405Z,88700.00
2023-05-05T06:12:19.276Z,88702.00
2023-05-05T06:13:19.140Z,88702.00
2023-05-05T06:14:20.142Z,88700.00
2023-05-05T06:15:19.145Z,88698.00
2023-05-05T06:16:19.140Z,88698.00
2023-05-05T06:17:18.833Z,88698.00
2023-05-05T06:18:18.843Z,88698.00
2023-05-05T06:19:19.064Z,88700.00
2023-05-05T06:20:18.472Z,88696.00
2023-05-05T06:21:18.409Z,88700.00
2023-05-05T06:22:18.190Z,88698.00
2023-05-05T06:23:18.096Z,88696.00
2023-05-05T06:24:17.922Z,88696.00
2023-05-05T06:25:17.833Z,88694.00
2023-05-05T06:26:17.690Z,88696.00
2023-05-05T06:27:17.578Z,88694.00
2023-05-05T06:28:17.470Z,88692.00
2023-05-05T06:29:17.324Z,88694.00
2023-05-05T06:30:17.252Z,88694.00
2023-05-05T06:31:17.158Z,88694.00
2023-05-05T06:32:17.038Z,88690.00
2023-05-05T06:33:16.973Z,88692.00
2023-05-05T06:34:16.833Z,88692.00
2023-05-05T06:35:16.697Z,88692.00
2023-05-05T06:36:16.558Z,88688.00
2023-05-05T06:37:17.140Z,88688.00
2023-05-05T06:38:16.279Z,88690.00
2023-05-05T06:39:16.296Z,88690.00
2023-05-05T06:40:15.959Z,88688.00
2023-05-05T06:41:15.900Z,88690.00
2023-05-05T06:42:15.654Z,88692.00
2023-05-05T06:43:15.562Z,88690.00
2023-05-05T06:44:15.641Z,88688.00
2023-05-05T06:45:15.389Z,88688.00
2023-05-05T06:46:15.389Z,88684.00
2023-05-05T06:47:15.407Z,88686.00
2023-05-05T06:48:15.149Z,88686.00
2023-05-05T06:49:15.009Z,88690.00
2023-05-05T06:50:14.866Z,88684.00
2023-05-05T06:51:14.676Z,88684.00
2023-05-05T06:52:14.544Z,88684.00
2023-05-05T06:53:14.407Z,88680.00
2023-05-05T06:54:14.328Z,88684.00
2023-05-05T06:55:14.166Z,88686.00
2023-05-05T06:56:13.957Z,88684.00
2023-05-05T06:57:13.818Z,88682.00
2023-05-05T06:58:13.738Z,88682.00
2023-05-05T06:59:13.783Z,88682.00
2023-05-05T07:00:13.565Z,88684.00
2023-05-05T07:01:13.418Z,88682.00
2023-05-05T07:02:13.213Z,88682.00
2023-05-05T07:03:13.178Z,88680.00
2023-05-05T07:04:13.097Z,88680.00
2023-05-05T07:05:12.794Z,88680.00
2023-05-05T07:06:12.662Z,88678.00
2023-05-05T07:07:12.523Z,88680.00
2023-05-05T07:08:12.383Z,88678.00
2023-05-05T07:09:12.254Z,88678.00
2023-05-05T07:10:12.080Z,88680.00
2023-05-05T07:11:11.950Z,88680.00
2023-05-05T07:12:11.819Z,88678.00
2023-05-05T07:13:11.801Z,88676.00
2023-05-05T07:14:11.538Z,88678.00
2023-05-05T07:15:23.797Z,88678.00
2023-05-05T07:16:12.321Z,88678.00
2023-05-05T07:17:11.134Z,88678.00
2023-05-05T07:18:11.539Z,88676.00
2023-05-05T07:19:10.863Z,88676.00
2023-05-05T07:20:10.938Z,88674.00
2023-05-05T07:21:10.538Z,88674.00
2023-05-05T07:22:10.407Z,88674.00
2023-05-05T07:23:11.089Z,88674.00
2023-05-05T07:24:10.211Z,88676.00
2023-05-05T07:25:10.161Z,88673.00
2023-05-05T07:26:09.832Z,88673.00
2023-05-05T07:27:09.694Z,88673.00
2023-05-05T07:28:09.555Z,88671.00
2023-05-05T07:29:09.426Z,88669.00
2023-05-05T07:30:13.085Z,88667.00
2023-05-05T07:31:10.178Z,88667.00
2023-05-05T07:32:09.028Z,88667.00
2023-05-05T07:33:08.953Z,88665.00
2023-05-05T07:34:08.682Z,88661.00
2023-05-05T07:35:09.122Z,88659.00
2023-05-05T07:36:08.550Z,88659.00
2023-05-05T07:37:08.356Z,88659.00
2023-05-05T07:38:08.785Z,88661.00
2023-05-05T07:39:08.209Z,88657.00
2023-05-05T07:40:08.940Z,88661.00
2023-05-05T07:41:08.024Z,88659.00
2023-05-05T07:42:08.733Z,88657.00
2023-05-05T07:43:07.842Z,88659.00
2023-05-05T07:44:07.744Z,88657.00
2023-05-05T07:45:07.582Z,88655.00
2023-05-05T07:46:07.571Z,88651.00
2023-05-05T07:47:07.445Z,88651.00
2023-05-05T07:48:07.192Z,88647.00
2023-05-05T07:49:07.041Z,88647.00
2023-05-05T07:50:07.204Z,88647.00
2023-05-05T07:52:37.097Z,88643.00
2023-05-05T07:53:26.345Z,88641.00
2023-05-05T07:54:25.332Z,88637.00
2023-05-05T07:55:25.300Z,88637.00
2023-05-05T07:56:25.339Z,88635.00
2023-05-05T07:57:25.381Z,88635.00
2023-05-05T07:58:25.468Z,88635.00
2023-05-05T07:59:25.433Z,88635.00
2023-05-05T08:00:25.274Z,88635.00
2023-05-05T08:01:25.271Z,88633.00
2023-05-05T08:02:25.471Z,88629.00
2023-05-05T08:03:25.381Z,88631.00
2023-05-05T08:04:25.225Z,88627.00
2023-05-05T08:05:25.182Z,88625.00
2023-05-05T08:06:25.233Z,88627.00
2023-05-05T08:07:25.171Z,88625.00
2023-05-05T08:08:25.329Z,88627.00
2023-05-05T08:09:25.201Z,88625.00
2023-05-05T08:10:25.178Z,88623.00
2023-05-05T08:11:27.739Z,88625.00
2023-05-05T08:12:25.132Z,88623.00
2023-05-05T08:13:25.102Z,88623.00
2023-05-05T08:14:25.154Z,88621.00
2023-05-05T08:15:25.080Z,88618.00
2023-05-05T08:16:25.102Z,88618.00
2023-05-05T08:17:25.111Z,88616.00
2023-05-05T08:18:25.114Z,88616.00
2023-05-05T08:19:29.149Z,88614.00
2023-05-05T08:20:25.047Z,88614.00
2023-05-05T08:21:25.050Z,88616.00
2023-05-05T08:22:25.041Z,88614.00
2023-05-05T08:23:25.044Z,88610.00
2023-05-05T08:24:25.144Z,88614.00
2023-05-05T08:25:25.089Z,88612.00
2023-05-05T08:26:25.045Z,88612.00
2023-05-05T08:27:25.080Z,88612.00
2023-05-05T08:28:25.003Z,88612.00
2023-05-05T08:29:25.591Z,88612.00
2023-05-05T08:30:24.981Z,88614.00
2023-05-05T08:31:25.058Z,88614.00
2023-05-05T08:32:25.919Z,88610.00
2023-05-05T08:33:25.012Z,88610.00
2023-05-05T08:34:25.099Z,88612.00
2023-05-05T08:35:24.982Z,88608.00
2023-05-05T08:36:24.955Z,88606.00
2023-05-05T08:37:24.981Z,88604.00
2023-05-05T08:38:25.056Z,88608.00
2023-05-05T08:39:25.090Z,88604.00
2023-05-05T08:40:25.099Z,88602.00
2023-05-05T08:41:25.046Z,88604.00
2023-05-05T08:42:36.055Z,88604.00
2023-05-05T08:43:26.052Z,88602.00
2023-05-05T08:44:25.004Z,88602.00
2023-05-05T08:45:25.027Z,88602.00
2023-05-05T08:46:25.058Z,88600.00
2023-05-05T08:47:25.001Z,88598.00
2023-05-05T08:48:24.936Z,88596.00
2023-05-05T08:49:24.929Z,88596.00
2023-05-05T08:50:25.031Z,88596.00
2023-05-05T08:51:24.936Z,88596.00
2023-05-05T08:52:25.048Z,88594.00
2023-05-05T08:53:25.039Z,88594.00
2023-05-05T08:54:25.007Z,88594.00
2023-05-05T08:55:25.268Z,88594.00
2023-05-05T08:56:25.532Z,88594.00
2023-05-05T08:57:24.979Z,88594.00
2023-05-05T08:58:26.972Z,88592.00
2023-05-05T08:59:25.082Z,88596.00
2023-05-05T09:00:24.913Z,88596.00
2023-05-05T09:01:24.912Z,88594.00
2023-05-05T09:02:25.006Z,88596.00
2023-05-05T09:03:24.933Z,88594.00
2023-05-05T09:04:24.830Z,88596.00
2023-05-05T09:05:24.826Z,88596.00
2023-05-05T09:06:24.919Z,88594.00
2023-05-05T09:07:24.758Z,88596.00
2023-05-05T09:08:24.757Z,88592.00
2023-05-05T09:09:24.723Z,88592.00
2023-05-05T09:10:24.717Z,88588.00
2023-05-05T09:11:24.686Z,88590.00
2023-05-05T09:12:24.658Z,88590.00
2023-05-05T09:13:24.676Z,88586.00
2023-05-05T09:14:24.628Z,88586.00
2023-05-05T09:15:24.596Z,88584.00
2023-05-05T09:16:24.678Z,88582.00
2023-05-05T09:17:24.577Z,88584.00
2023-05-05T09:18:24.566Z,88584.00
2023-05-05T09:19:24.533Z,88580.00
2023-05-05T09:20:24.502Z,88580.00
2023-05-05T09:21:24.516Z,88578.00
2023-05-05T09:22:24.531Z,88578.00
2023-05-05T09:23:24.445Z,88578.00
2023-05-05T09:24:24.443Z,88576.00
2023-05-05T09:25:24.474Z,88576.00
2023-05-05T09:26:24.448Z,88576.00
2023-05-05T09:27:24.458Z,88576.00
2023-05-05T09:28:24.483Z,88576.00
2023-05-05T09:29:24.493Z,88578.00
2023-05-05T09:30:24.582Z,88580.00
2023-05-05T09:31:24.628Z,88578.00
2023-05-05T09:32:25.159Z,88578.00
2023-05-05T09:33:24.531Z,88580.00
2023-05-05T09:34:24.564Z,88578.00
2023-05-05T09:35:24.543Z,88576.00
2023-05-05T09:36:24.543Z,88572.00
2023-05-05T09:37:25.048Z,88576.00
2023-05-05T09:38:24.616Z,88574.00
2023-05-05T09:39:24.548Z,88572.00
2023-05-05T09:40:24.600Z,88572.00
2023-05-05T09:41:24.562Z,88570.00
2023-05-05T09:42:24.571Z,88572.00
2023-05-05T09:43:24.598Z,88572.00
2023-05-05T09:44:24.637Z,88574.00
2023-05-05T09:45:25.672Z,88576.00
2023-05-05T09:46:24.825Z,88574.00
2023-05-05T09:47:29.889Z,88570.00
2023-05-05T09:48:24.577Z,88568.00
2023-05-05T09:49:24.547Z,88568.00
2023-05-05T09:50:24.464Z,88568.00
2023-05-05T09:51:24.456Z,88566.00
2023-05-05T09:52:24.392Z,88570.00
2023-05-05T09:53:24.491Z,88568.00
2023-05-05T09:54:24.509Z,88568.00
2023-05-05T09:55:24.294Z,88570.00
2023-05-05T09:56:24.299Z,88570.00
2023-05-05T09:57:24.250Z,88568.00
2023-05-05T09:58:24.221Z,88570.00
2023-05-05T09:59:24.703Z,88568.00
2023-05-05T10:00:24.102Z,88566.00
2023-05-05T10:01:24.083Z,88566.00
2023-05-05T10:02:24.044Z,88566.00
2023-05-05T10:03:24.001Z,88566.00
2023-05-05T10:04:24.054Z,88564.00
2023-05-05T10:05:23.967Z,88566.00
2023-05-05T10:06:23.893Z,88563.00
2023-05-05T10:07:23.857Z,88564.00
2023-05-05T10:08:23.811Z,88563.00
2023-05-05T10:09:23.877Z,88564.00
2023-05-05T10:10:23.815Z,88563.00
2023-05-05T10:11:23.710Z,88563.00
2023-05-05T10:12:23.675Z,88559.00
2023-05-05T10:13:23.669Z,88561.00
2023-05-05T10:14:23.598Z,88561.00
2023-05-05T10:15:23.568Z,88559.00
2023-05-05T10:16:23.637Z,88551.00
2023-05-05T10:17:23.480Z,88557.00
2023-05-05T10:18:23.599Z,88553.00
2023-05-05T10:19:23.413Z,88551.00
2023-05-05T10:20:23.378Z,88551.00
2023-05-05T10:21:23.307Z,88549.00
2023-05-05T10:22:23.292Z,88545.00
2023-05-05T10:23:23.321Z,88543.00
2023-05-05T10:24:23.201Z,88547.00
2023-05-05T10:25:23.151Z,88549.00
2023-05-05T10:26:23.389Z,88545.00
2023-05-05T10:27:23.117Z,88545.00
2023-05-05T10:28:23.128Z,88545.00
2023-05-05T10:29:23.016Z,88545.00
2023-05-05T10:30:22.953Z,88541.00
2023-05-05T10:31:26.419Z,88543.00
2023-05-05T10:32:50.259Z,88539.00
2023-05-05T10:34:23.098Z,88535.00
2023-05-05T10:35:23.586Z,88537.00
2023-05-05T10:36:23.444Z,88535.00
2023-05-05T10:37:22.700Z,88535.00
2023-05-05T10:38:24.116Z,88533.00
2023-05-05T10:39:22.719Z,88531.00
2023-05-05T10:40:22.673Z,88527.00
2023-05-05T10:41:22.536Z,88525.00
2023-05-05T10:42:22.527Z,88521.00
2023-05-05T10:43:22.419Z,88523.00
2023-05-05T10:44:22.364Z,88523.00
2023-05-05T10:45:22.368Z,88523.00
2023-05-05T10:46:22.337Z,88521.00
2023-05-05T10:47:22.279Z,88519.00
2023-05-05T10:48:22.222Z,88517.00
2023-05-05T10:49:22.266Z,88517.00
2023-05-05T10:50:22.120Z,88513.00
2023-05-05T10:51:35.391Z,88519.00
2023-05-05T10:52:23.019Z,88509.00
2023-05-05T10:53:22.061Z,88511.00
2023-05-05T10:54:21.979Z,88511.00
2023-05-05T10:55:21.887Z,88509.00
2023-05-05T10:56:21.850Z,88508.00
2023-05-05T10:57:21.774Z,88508.00
2023-05-05T10:58:21.880Z,88506.00
2023-05-05T10:59:21.673Z,88502.00
2023-05-05T11:00:21.648Z,88502.00
2023-05-05T11:01:21.629Z,88498.00
2023-05-05T11:02:21.537Z,88498.00
2023-05-05T11:03:21.553Z,88498.00
2023-05-05T11:04:21.484Z,88496.00
2023-05-05T11:05:21.422Z,88494.00
2023-05-05T11:06:21.357Z,88492.00
2023-05-05T11:07:21.355Z,88490.00
2023-05-05T11:08:21.238Z,88488.00
2023-05-05T11:09:21.191Z,88488.00
2023-05-05T11:10:21.315Z,88486.00
2023-05-05T11:11:21.095Z,88484.00
2023-05-05T11:12:21.117Z,88484.00
2023-05-05T11:13:21.247Z,88484.00
2023-05-05T11:14:21.031Z,88480.00
2023-05-05T11:15:20.987Z,88480.00
2023-05-05T11:16:21.035Z,88478.00
2023-05-05T11:17:20.980Z,88471.00
2023-05-05T11:18:20.946Z,88469.00
2023-05-05T11:19:20.894Z,88467.00
2023-05-05T11:20:21.032Z,88465.00
2023-05-05T11:21:21.614Z,88463.00
2023-05-05T11:22:20.823Z,88461.00
2023-05-05T11:23:20.832Z,88461.00
2023-05-05T11:24:20.797Z,88459.00
2023-05-05T11:25:21.172Z,88457.00
2023-05-05T11:26:20.748Z,88455.00
2023-05-05T11:27:20.810Z,88457.00
2023-05-05T11:28:20.711Z,88463.00
2023-05-05T11:29:20.808Z,88461.00
2023-05-05T11:30:20.747Z,88463.00
2023-05-05T11:31:20.697Z,88465.00
2023-05-05T11:32:20.670Z,88461.00
2023-05-05T11:33:20.682Z,88461.00
2023-05-05T11:34:20.647Z,88457.00
2023-05-05T11:35:20.686Z,88455.00
2023-05-05T11:36:20.684Z,88455.00
2023-05-05T11:37:20.680Z,88453.00
2023-05-05T11:38:20.714Z,88455.00
2023-05-05T11:39:20.708Z,88453.00
2023-05-05T11:40:20.719Z,88449.00
2023-05-05T11:41:20.686Z,88449.00
2023-05-05T11:42:20.681Z,88448.00
2023-05-05T11:43:20.657Z,88446.00
2023-05-05T11:44:20.618Z,88446.00
2023-05-05T11:45:20.607Z,88442.00